Thunderstorms From: 23-05-2018 15:04 Until: 24-05-2018 15:00 warning for: Thunderstorms Level: Yellow info button

Although rather usual in this region, locally or potentially dangerous phenomena are expected. (such as local winds, summer thunderstorms, rising streams or high waves) Be aware and pay attention to the latest weather updates, especially if you carry out activities exposed to weather or close to a stream or shoreline. 


Meteo18 Weather Cam more information Meteo18 Weather Cam


warning for Thunderstorms more information blitzortung!


Rain radar more information rain snow radar


Visit our other weather sites:

Template documentation
and downloads

And another site



Weather Underground History page Text

Daily Summary for February 8, 2018 Units:  Both    English   Metric
« Previous Day
Next Day »
Daily Weekly Monthly Yearly Custom
  High: Low: Average:
Temperature: TemperatureC °F /  -17.8 °C -3.7 °F /  -19.8 °C -1.6 °F /  -18.7 °C
Dew Point: DewpointC °F /  -17.8 °C -4.6 °F /  -20.3 °C -2.8 °F /  -19.3 °C
Humidity: Humidity % 87 % 91 %
Wind Speed: WindSpeedKMH mph /  0 km/h - 1.8 mph /  2.9 km/h
Wind Gust: WindSpeedGustKMH mph /  0 km/h - -
Wind:- - SSE
Pressure: PressurehPa in /  0 hPa 1019.2 in /  34510.1 hPa -
Precipitation: 0.0 in /  0 mm    
Historical Graphs
 
 
Tabular Data for February 8, 2018
Time Temperature Dew Point Pressure Wind Wind Speed Wind Gust Humidity Rainfall Rate (Hourly)
TemperatureC °F /  -17.8 °C DewpointC °F /  -17.8 °C PressurehPa in /  0 hPa Calm     Humidity % HourlyPrecipMM in /  0 mm
00:02 -1.6 °F /  -18.7 °C -2.4 °F /  -19.1 °C 1019.2 in /  34510.1 hPa North 4.7 mph /  7.6 km/h 9.7 mph /  15.6 km/h 94 % 0.0 in /  0 mm
00:08 -1.6 °F /  -18.7 °C -2.4 °F /  -19.1 °C 1019.2 in /  34510.1 hPa North 3.2 mph /  5.1 km/h 6.4 mph /  10.3 km/h 94 % 0.0 in /  0 mm
00:14 -1.6 °F /  -18.7 °C -2.4 °F /  -19.1 °C 1019.5 in /  34520.3 hPa North 3.2 mph /  5.1 km/h 6.4 mph /  10.3 km/h 94 % 0.0 in /  0 mm
00:20 -1.6 °F /  -18.7 °C -2.4 °F /  -19.1 °C 1019.5 in /  34520.3 hPa Calm   1.6 mph /  2.6 km/h 94 % 0.0 in /  0 mm
00:26 -1.6 °F /  -18.7 °C -2.4 °F /  -19.1 °C 1019.5 in /  34520.3 hPa Calm   1.6 mph /  2.6 km/h 94 % 0.0 in /  0 mm
00:32 -1.6 °F /  -18.7 °C -2.4 °F /  -19.1 °C 1019.2 in /  34510.1 hPa Calm   3.2 mph /  5.1 km/h 94 % 0.0 in /  0 mm
00:38 -1.6 °F /  -18.7 °C -2.4 °F /  -19.1 °C 1019.2 in /  34510.1 hPa North 1.4 mph /  2.3 km/h 4.8 mph /  7.7 km/h 94 % 0.0 in /  0 mm
00:44 -1.7 °F /  -18.7 °C -2.5 °F /  -19.2 °C 1019.2 in /  34510.1 hPa North 1.4 mph /  2.3 km/h 4.8 mph /  7.7 km/h 94 % 0.0 in /  0 mm
00:50 -1.7 °F /  -18.7 °C -2.5 °F /  -19.2 °C 1019.2 in /  34510.1 hPa North 7.9 mph /  12.7 km/h 9.7 mph /  15.6 km/h 94 % 0.0 in /  0 mm
00:56 -1.7 °F /  -18.7 °C -2.5 °F /  -19.2 °C 1019.2 in /  34510.1 hPa North 3.2 mph /  5.1 km/h 3.2 mph /  5.1 km/h 94 % 0.0 in /  0 mm
01:02 -1.7 °F /  -18.7 °C -2.5 °F /  -19.2 °C 1019.2 in /  34510.1 hPa North 1.4 mph /  2.3 km/h 3.2 mph /  5.1 km/h 94 % 0.0 in /  0 mm
01:08 -1.7 °F /  -18.7 °C -2.5 °F /  -19.2 °C 1019.2 in /  34510.1 hPa North 1.4 mph /  2.3 km/h 1.6 mph /  2.6 km/h 94 % 0.0 in /  0 mm
01:14 -1.7 °F /  -18.7 °C -2.5 °F /  -19.2 °C 1019.5 in /  34520.3 hPa North 3.2 mph /  5.1 km/h 4.8 mph /  7.7 km/h 94 % 0.0 in /  0 mm
01:20 -1.7 °F /  -18.7 °C -2.5 °F /  -19.2 °C 1019.2 in /  34510.1 hPa North 4.7 mph /  7.6 km/h 6.4 mph /  10.3 km/h 94 % 0.0 in /  0 mm
01:26 -1.8 °F /  -18.8 °C -2.6 °F /  -19.2 °C 1019.5 in /  34520.3 hPa North 6.4 mph /  10.3 km/h 12.9 mph /  20.8 km/h 94 % 0.0 in /  0 mm
01:32 -1.8 °F /  -18.8 °C -2.6 °F /  -19.2 °C 1019.5 in /  34520.3 hPa North 4.7 mph /  7.6 km/h 8.0 mph /  12.9 km/h 94 % 0.0 in /  0 mm
01:38 -1.8 °F /  -18.8 °C -2.6 °F /  -19.2 °C 1019.5 in /  34520.3 hPa NW 6.4 mph /  10.3 km/h 9.7 mph /  15.6 km/h 94 % 0.0 in /  0 mm
01:44 -1.8 °F /  -18.8 °C -2.6 °F /  -19.2 °C 1019.5 in /  34520.3 hPa NNW 4.7 mph /  7.6 km/h 8.0 mph /  12.9 km/h 94 % 0.0 in /  0 mm
01:50 -1.8 °F /  -18.8 °C -2.6 °F /  -19.2 °C 1019.5 in /  34520.3 hPa NW 1.4 mph /  2.3 km/h 6.4 mph /  10.3 km/h 94 % 0.0 in /  0 mm
01:56 -1.8 °F /  -18.8 °C -2.6 °F /  -19.2 °C 1019.5 in /  34520.3 hPa NW 1.4 mph /  2.3 km/h 8.0 mph /  12.9 km/h 94 % 0.0 in /  0 mm
02:02 -1.9 °F /  -18.8 °C -2.7 °F /  -19.3 °C 1019.5 in /  34520.3 hPa Calm   4.8 mph /  7.7 km/h 94 % 0.0 in /  0 mm
02:08 -1.9 °F /  -18.8 °C -2.7 °F /  -19.3 °C 1019.5 in /  34520.3 hPa NNW 1.4 mph /  2.3 km/h 8.0 mph /  12.9 km/h 94 % 0.0 in /  0 mm
02:14 -1.9 °F /  -18.8 °C -2.7 °F /  -19.3 °C 1019.5 in /  34520.3 hPa NNW 3.2 mph /  5.1 km/h 6.4 mph /  10.3 km/h 94 % 0.0 in /  0 mm
02:20 -1.9 °F /  -18.8 °C -2.9 °F /  -19.4 °C 1019.5 in /  34520.3 hPa NW 7.9 mph /  12.7 km/h 11.3 mph /  18.2 km/h 93 % 0.0 in /  0 mm
02:26 -1.9 °F /  -18.8 °C -2.9 °F /  -19.4 °C 1019.5 in /  34520.3 hPa Calm   6.4 mph /  10.3 km/h 93 % 0.0 in /  0 mm
02:32 -1.9 °F /  -18.8 °C -2.9 °F /  -19.4 °C 1019.5 in /  34520.3 hPa North 7.9 mph /  12.7 km/h 8.0 mph /  12.9 km/h 93 % 0.0 in /  0 mm
02:38 -1.9 °F /  -18.8 °C -2.9 °F /  -19.4 °C 1019.5 in /  34520.3 hPa NNW 6.4 mph /  10.3 km/h 9.7 mph /  15.6 km/h 93 % 0.0 in /  0 mm
02:44 -1.9 °F /  -18.8 °C -2.9 °F /  -19.4 °C 1019.5 in /  34520.3 hPa NNW 1.4 mph /  2.3 km/h 6.4 mph /  10.3 km/h 93 % 0.0 in /  0 mm
02:50 -1.9 °F /  -18.8 °C -2.9 °F /  -19.4 °C 1019.5 in /  34520.3 hPa North 3.2 mph /  5.1 km/h 9.7 mph /  15.6 km/h 93 % 0.0 in /  0 mm
02:56 -1.9 °F /  -18.8 °C -2.9 °F /  -19.4 °C 1019.5 in /  34520.3 hPa NNE 13.0 mph /  20.9 km/h 14.5 mph /  23.3 km/h 93 % 0.0 in /  0 mm
03:02 -2.0 °F /  -18.9 °C -3.0 °F /  -19.4 °C 1019.5 in /  34520.3 hPa NNE 6.4 mph /  10.3 km/h 11.3 mph /  18.2 km/h 93 % 0.0 in /  0 mm
03:08 -2.0 °F /  -18.9 °C -3.1 °F /  -19.5 °C 1019.5 in /  34520.3 hPa North 7.9 mph /  12.7 km/h 14.5 mph /  23.3 km/h 92 % 0.0 in /  0 mm
03:14 -2.1 °F /  -18.9 °C -3.2 °F /  -19.6 °C 1019.5 in /  34520.3 hPa NW 3.2 mph /  5.1 km/h 11.3 mph /  18.2 km/h 92 % 0.0 in /  0 mm
03:20 -2.1 °F /  -18.9 °C -3.2 °F /  -19.6 °C 1019.5 in /  34520.3 hPa North 6.4 mph /  10.3 km/h 12.9 mph /  20.8 km/h 92 % 0.0 in /  0 mm
03:26 -2.1 °F /  -18.9 °C -3.2 °F /  -19.6 °C 1019.5 in /  34520.3 hPa NW 4.7 mph /  7.6 km/h 8.0 mph /  12.9 km/h 92 % 0.0 in /  0 mm
03:32 -2.1 °F /  -18.9 °C -3.2 °F /  -19.6 °C 1019.5 in /  34520.3 hPa NNW 4.7 mph /  7.6 km/h 6.4 mph /  10.3 km/h 92 % 0.0 in /  0 mm
03:38 -2.1 °F /  -18.9 °C -3.2 °F /  -19.6 °C 1019.5 in /  34520.3 hPa NW 1.4 mph /  2.3 km/h 6.4 mph /  10.3 km/h 92 % 0.0 in /  0 mm
03:44 -2.2 °F /  -19 °C -3.5 °F /  -19.7 °C 1019.5 in /  34520.3 hPa NW 3.2 mph /  5.1 km/h 9.7 mph /  15.6 km/h 91 % 0.0 in /  0 mm
03:50 -2.2 °F /  -19 °C -3.5 °F /  -19.7 °C 1019.2 in /  34510.1 hPa NNW 3.2 mph /  5.1 km/h 8.0 mph /  12.9 km/h 91 % 0.0 in /  0 mm
03:56 -2.3 °F /  -19.1 °C -3.6 °F /  -19.8 °C 1019.5 in /  34520.3 hPa NW 1.4 mph /  2.3 km/h 8.0 mph /  12.9 km/h 91 % 0.0 in /  0 mm
04:02 -2.3 °F /  -19.1 °C -3.6 °F /  -19.8 °C 1019.5 in /  34520.3 hPa Calm   4.8 mph /  7.7 km/h 91 % 0.0 in /  0 mm
04:08 -2.4 °F /  -19.1 °C -3.5 °F /  -19.7 °C 1019.5 in /  34520.3 hPa North 3.2 mph /  5.1 km/h 4.8 mph /  7.7 km/h 92 % 0.0 in /  0 mm
04:14 -2.5 °F /  -19.2 °C -3.6 °F /  -19.8 °C 1019.5 in /  34520.3 hPa NNW 4.7 mph /  7.6 km/h 4.8 mph /  7.7 km/h 92 % 0.0 in /  0 mm
04:20 -2.6 °F /  -19.2 °C -3.7 °F /  -19.8 °C 1019.5 in /  34520.3 hPa WNW 1.4 mph /  2.3 km/h 4.8 mph /  7.7 km/h 92 % 0.0 in /  0 mm
04:26 -2.7 °F /  -19.3 °C -3.8 °F /  -19.9 °C 1019.5 in /  34520.3 hPa WNW 1.4 mph /  2.3 km/h 4.8 mph /  7.7 km/h 92 % 0.0 in /  0 mm
04:32 -2.8 °F /  -19.3 °C -3.8 °F /  -19.9 °C 1019.5 in /  34520.3 hPa NNW 1.4 mph /  2.3 km/h 4.8 mph /  7.7 km/h 93 % 0.0 in /  0 mm
04:38 -2.9 °F /  -19.4 °C -3.9 °F /  -19.9 °C 1019.2 in /  34510.1 hPa NNW 4.7 mph /  7.6 km/h 6.4 mph /  10.3 km/h 93 % 0.0 in /  0 mm
04:44 -2.9 °F /  -19.4 °C -3.9 °F /  -19.9 °C 1019.2 in /  34510.1 hPa Calm   6.4 mph /  10.3 km/h 93 % 0.0 in /  0 mm
04:50 -2.9 °F /  -19.4 °C -3.9 °F /  -19.9 °C 1019.2 in /  34510.1 hPa WNW 3.2 mph /  5.1 km/h 6.4 mph /  10.3 km/h 93 % 0.0 in /  0 mm
04:56 -3.0 °F /  -19.4 °C -4.0 °F /  -20 °C 1019.2 in /  34510.1 hPa NW 1.4 mph /  2.3 km/h 4.8 mph /  7.7 km/h 93 % 0.0 in /  0 mm
05:02 -3.1 °F /  -19.5 °C -4.1 °F /  -20.1 °C 1019.2 in /  34510.1 hPa NNW 1.4 mph /  2.3 km/h 4.8 mph /  7.7 km/h 93 % 0.0 in /  0 mm
05:08 -3.2 °F /  -19.6 °C -4.2 °F /  -20.1 °C 1019.2 in /  34510.1 hPa WNW 1.4 mph /  2.3 km/h 3.2 mph /  5.1 km/h 93 % 0.0 in /  0 mm
05:14 -3.3 °F /  -19.6 °C -4.3 °F /  -20.2 °C 1019.5 in /  34520.3 hPa WNW 1.4 mph /  2.3 km/h 3.2 mph /  5.1 km/h 93 % 0.0 in /  0 mm
05:21 -3.4 °F /  -19.7 °C -4.4 °F /  -20.2 °C 1019.5 in /  34520.3 hPa NW 1.4 mph /  2.3 km/h 1.6 mph /  2.6 km/h 93 % 0.0 in /  0 mm
05:27 -3.4 °F /  -19.7 °C -4.4 °F /  -20.2 °C 1019.5 in /  34520.3 hPa Calm   3.2 mph /  5.1 km/h 93 % 0.0 in /  0 mm
05:33 -3.4 °F /  -19.7 °C -4.4 °F /  -20.2 °C 1019.5 in /  34520.3 hPa NW 1.4 mph /  2.3 km/h 4.8 mph /  7.7 km/h 93 % 0.0 in /  0 mm
05:39 -3.5 °F /  -19.7 °C -4.3 °F /  -20.2 °C 1019.5 in /  34520.3 hPa Calm   4.8 mph /  7.7 km/h 94 % 0.0 in /  0 mm
05:45 -3.6 °F /  -19.8 °C -4.4 °F /  -20.2 °C 1019.5 in /  34520.3 hPa Calm   6.4 mph /  10.3 km/h 94 % 0.0 in /  0 mm
05:51 -3.6 °F /  -19.8 °C -4.4 °F /  -20.2 °C 1019.5 in /  34520.3 hPa NW 3.2 mph /  5.1 km/h 4.8 mph /  7.7 km/h 94 % 0.0 in /  0 mm
05:57 -3.6 °F /  -19.8 °C -4.4 °F /  -20.2 °C 1019.5 in /  34520.3 hPa Calm   6.4 mph /  10.3 km/h 94 % 0.0 in /  0 mm
06:03 -3.7 °F /  -19.8 °C -4.5 °F /  -20.3 °C 1019.5 in /  34520.3 hPa NW 1.4 mph /  2.3 km/h 6.4 mph /  10.3 km/h 94 % 0.0 in /  0 mm
06:09 -3.6 °F /  -19.8 °C -4.4 °F /  -20.2 °C 1019.5 in /  34520.3 hPa Calm   6.4 mph /  10.3 km/h 94 % 0.0 in /  0 mm
06:15 -3.6 °F /  -19.8 °C -4.4 °F /  -20.2 °C 1019.9 in /  34533.8 hPa NW 1.4 mph /  2.3 km/h 4.8 mph /  7.7 km/h 94 % 0.0 in /  0 mm
06:21 -3.6 °F /  -19.8 °C -4.4 °F /  -20.2 °C 1019.9 in /  34533.8 hPa Calm   3.2 mph /  5.1 km/h 94 % 0.0 in /  0 mm
06:27 -3.7 °F /  -19.8 °C -4.5 °F /  -20.3 °C 1019.9 in /  34533.8 hPa Calm   4.8 mph /  7.7 km/h 94 % 0.0 in /  0 mm
06:33 -3.7 °F /  -19.8 °C -4.5 °F /  -20.3 °C 1019.9 in /  34533.8 hPa WNW 3.2 mph /  5.1 km/h 3.2 mph /  5.1 km/h 94 % 0.0 in /  0 mm
06:39 -3.7 °F /  -19.8 °C -4.5 °F /  -20.3 °C 1019.9 in /  34533.8 hPa NNW 1.4 mph /  2.3 km/h 3.2 mph /  5.1 km/h 94 % 0.0 in /  0 mm
06:45 -3.7 °F /  -19.8 °C -4.5 °F /  -20.3 °C 1019.9 in /  34533.8 hPa Calm   6.4 mph /  10.3 km/h 94 % 0.0 in /  0 mm
06:51 -3.7 °F /  -19.8 °C -4.5 °F /  -20.3 °C 1019.9 in /  34533.8 hPa NW 3.2 mph /  5.1 km/h 6.4 mph /  10.3 km/h 94 % 0.0 in /  0 mm
06:57 -3.6 °F /  -19.8 °C -4.4 °F /  -20.2 °C 1019.9 in /  34533.8 hPa NNW 1.4 mph /  2.3 km/h 1.6 mph /  2.6 km/h 94 % 0.0 in /  0 mm
07:03 -3.6 °F /  -19.8 °C -4.4 °F /  -20.2 °C 1019.9 in /  34533.8 hPa NNW 4.7 mph /  7.6 km/h 8.0 mph /  12.9 km/h 94 % 0.0 in /  0 mm
07:09 -3.6 °F /  -19.8 °C -4.4 °F /  -20.2 °C 1019.9 in /  34533.8 hPa NW 1.4 mph /  2.3 km/h 4.8 mph /  7.7 km/h 94 % 0.0 in /  0 mm
07:15 -3.6 °F /  -19.8 °C -4.4 °F /  -20.2 °C 1019.9 in /  34533.8 hPa NNW 3.2 mph /  5.1 km/h 6.4 mph /  10.3 km/h 94 % 0.0 in /  0 mm
07:21 -3.6 °F /  -19.8 °C -4.6 °F /  -20.3 °C 1019.9 in /  34533.8 hPa WNW 1.4 mph /  2.3 km/h 3.2 mph /  5.1 km/h 93 % 0.0 in /  0 mm
07:27 -3.6 °F /  -19.8 °C -4.6 °F /  -20.3 °C 1019.9 in /  34533.8 hPa NW 4.7 mph /  7.6 km/h 4.8 mph /  7.7 km/h 93 % 0.0 in /  0 mm
07:33 -3.5 °F /  -19.7 °C -4.3 °F /  -20.2 °C 1019.9 in /  34533.8 hPa NNW 1.4 mph /  2.3 km/h 3.2 mph /  5.1 km/h 94 % 0.0 in /  0 mm
07:39 -3.5 °F /  -19.7 °C -4.3 °F /  -20.2 °C 1020.2 in /  34544 hPa NNW 1.4 mph /  2.3 km/h 3.2 mph /  5.1 km/h 94 % 0.0 in /  0 mm
07:45 -3.4 °F /  -19.7 °C -4.2 °F /  -20.1 °C 1020.2 in /  34544 hPa Calm   1.6 mph /  2.6 km/h 94 % 0.0 in /  0 mm
07:51 -3.4 °F /  -19.7 °C -4.2 °F /  -20.1 °C 1020.2 in /  34544 hPa Calm   1.6 mph /  2.6 km/h 94 % 0.0 in /  0 mm
07:57 -3.4 °F /  -19.7 °C -4.2 °F /  -20.1 °C 1020.2 in /  34544 hPa North 1.4 mph /  2.3 km/h 6.4 mph /  10.3 km/h 94 % 0.0 in /  0 mm
08:03 -3.3 °F /  -19.6 °C -4.1 °F /  -20.1 °C 1020.5 in /  34554.1 hPa North 1.4 mph /  2.3 km/h 8.0 mph /  12.9 km/h 94 % 0.0 in /  0 mm
08:09 -3.3 °F /  -19.6 °C -4.1 °F /  -20.1 °C 1020.2 in /  34544 hPa NNE 1.4 mph /  2.3 km/h 4.8 mph /  7.7 km/h 94 % 0.0 in /  0 mm
08:15 -3.2 °F /  -19.6 °C -4.0 °F /  -20 °C 1020.5 in /  34554.1 hPa Calm   6.4 mph /  10.3 km/h 94 % 0.0 in /  0 mm
08:21 -3.2 °F /  -19.6 °C -4.0 °F /  -20 °C 1020.5 in /  34554.1 hPa North 4.7 mph /  7.6 km/h 4.8 mph /  7.7 km/h 94 % 0.0 in /  0 mm
08:27 -3.1 °F /  -19.5 °C -3.9 °F /  -19.9 °C 1020.5 in /  34554.1 hPa NNW 3.2 mph /  5.1 km/h 6.4 mph /  10.3 km/h 94 % 0.0 in /  0 mm
08:33 -3.0 °F /  -19.4 °C -3.8 °F /  -19.9 °C 1020.5 in /  34554.1 hPa NNE 1.4 mph /  2.3 km/h 6.4 mph /  10.3 km/h 94 % 0.0 in /  0 mm
08:39 -2.9 °F /  -19.4 °C -3.7 °F /  -19.8 °C 1020.5 in /  34554.1 hPa NNE 1.4 mph /  2.3 km/h 6.4 mph /  10.3 km/h 94 % 0.0 in /  0 mm
08:45 -2.9 °F /  -19.4 °C -3.7 °F /  -19.8 °C 1020.5 in /  34554.1 hPa Calm   4.8 mph /  7.7 km/h 94 % 0.0 in /  0 mm
08:51 -2.8 °F /  -19.3 °C -3.6 °F /  -19.8 °C 1020.5 in /  34554.1 hPa NNE 3.2 mph /  5.1 km/h 4.8 mph /  7.7 km/h 94 % 0.0 in /  0 mm
08:57 -2.8 °F /  -19.3 °C -3.6 °F /  -19.8 °C 1020.5 in /  34554.1 hPa NE 4.7 mph /  7.6 km/h 4.8 mph /  7.7 km/h 94 % 0.0 in /  0 mm
09:03 -2.8 °F /  -19.3 °C -3.6 °F /  -19.8 °C 1020.9 in /  34567.7 hPa NE 1.4 mph /  2.3 km/h 3.2 mph /  5.1 km/h 94 % 0.0 in /  0 mm
09:09 -2.8 °F /  -19.3 °C -3.6 °F /  -19.8 °C 1020.9 in /  34567.7 hPa North 1.4 mph /  2.3 km/h 3.2 mph /  5.1 km/h 94 % 0.0 in /  0 mm
09:15 -2.7 °F /  -19.3 °C -3.5 °F /  -19.7 °C 1020.9 in /  34567.7 hPa Calm   1.6 mph /  2.6 km/h 94 % 0.0 in /  0 mm
09:21 -2.6 °F /  -19.2 °C -3.4 °F /  -19.7 °C 1020.9 in /  34567.7 hPa Calm   1.6 mph /  2.6 km/h 94 % 0.0 in /  0 mm
09:27 -2.6 °F /  -19.2 °C -3.4 °F /  -19.7 °C 1020.9 in /  34567.7 hPa Calm   1.6 mph /  2.6 km/h 94 % 0.0 in /  0 mm
09:33 -2.4 °F /  -19.1 °C -3.2 °F /  -19.6 °C 1020.9 in /  34567.7 hPa Calm   1.6 mph /  2.6 km/h 94 % 0.0 in /  0 mm
09:40 -2.3 °F /  -19.1 °C -3.1 °F /  -19.5 °C 1021.2 in /  34577.8 hPa Calm     94 % 0.0 in /  0 mm
09:48 -2.2 °F /  -19 °C -3.0 °F /  -19.4 °C 1021.2 in /  34577.8 hPa Calm     94 % 0.0 in /  0 mm
09:54 -2.2 °F /  -19 °C -3.0 °F /  -19.4 °C 1021.2 in /  34577.8 hPa Calm   1.6 mph /  2.6 km/h 94 % 0.0 in /  0 mm
10:00 -2.2 °F /  -19 °C -3.0 °F /  -19.4 °C 1021.2 in /  34577.8 hPa Calm   1.6 mph /  2.6 km/h 94 % 0.0 in /  0 mm
10:06 -2.1 °F /  -18.9 °C -2.9 °F /  -19.4 °C 1021.2 in /  34577.8 hPa Calm   3.2 mph /  5.1 km/h 94 % 0.0 in /  0 mm
10:12 -2.0 °F /  -18.9 °C -2.8 °F /  -19.3 °C 1021.2 in /  34577.8 hPa North 1.4 mph /  2.3 km/h 3.2 mph /  5.1 km/h 94 % 0.0 in /  0 mm
10:18 -1.9 °F /  -18.8 °C -2.9 °F /  -19.4 °C 1021.2 in /  34577.8 hPa NNW 1.4 mph /  2.3 km/h 3.2 mph /  5.1 km/h 93 % 0.0 in /  0 mm
10:24 -2.0 °F /  -18.9 °C -3.0 °F /  -19.4 °C 1021.2 in /  34577.8 hPa North 1.4 mph /  2.3 km/h 3.2 mph /  5.1 km/h 93 % 0.0 in /  0 mm
10:30 -2.1 °F /  -18.9 °C -3.1 °F /  -19.5 °C 1021.2 in /  34577.8 hPa NNW 3.2 mph /  5.1 km/h 4.8 mph /  7.7 km/h 93 % 0.0 in /  0 mm
10:36 -2.0 °F /  -18.9 °C -3.1 °F /  -19.5 °C 1021.2 in /  34577.8 hPa Calm   3.2 mph /  5.1 km/h 92 % 0.0 in /  0 mm
10:42 -1.9 °F /  -18.8 °C -3.0 °F /  -19.4 °C 1021.2 in /  34577.8 hPa North 1.4 mph /  2.3 km/h 4.8 mph /  7.7 km/h 92 % 0.0 in /  0 mm
10:48 -1.8 °F /  -18.8 °C -2.9 °F /  -19.4 °C 1021.2 in /  34577.8 hPa NW 1.4 mph /  2.3 km/h 3.2 mph /  5.1 km/h 92 % 0.0 in /  0 mm
10:54 -1.8 °F /  -18.8 °C -2.9 °F /  -19.4 °C 1021.2 in /  34577.8 hPa Calm     92 % 0.0 in /  0 mm
11:00 -1.5 °F /  -18.6 °C -2.6 °F /  -19.2 °C 1021.6 in /  34591.4 hPa Calm   1.6 mph /  2.6 km/h 92 % 0.0 in /  0 mm
11:06 -1.4 °F /  -18.6 °C -2.7 °F /  -19.3 °C 1021.2 in /  34577.8 hPa NE 1.4 mph /  2.3 km/h 4.8 mph /  7.7 km/h 91 % 0.0 in /  0 mm
11:12 -1.6 °F /  -18.7 °C -2.9 °F /  -19.4 °C 1021.2 in /  34577.8 hPa NE 3.2 mph /  5.1 km/h 8.0 mph /  12.9 km/h 91 % 0.0 in /  0 mm
11:18 -1.5 °F /  -18.6 °C -2.8 °F /  -19.3 °C 1021.2 in /  34577.8 hPa NE 4.7 mph /  7.6 km/h 6.4 mph /  10.3 km/h 91 % 0.0 in /  0 mm
11:24 -1.6 °F /  -18.7 °C -2.9 °F /  -19.4 °C 1021.2 in /  34577.8 hPa NE 6.4 mph /  10.3 km/h 11.3 mph /  18.2 km/h 91 % 0.0 in /  0 mm
11:30 -1.5 °F /  -18.6 °C -2.8 °F /  -19.3 °C 1021.6 in /  34591.4 hPa NW 3.2 mph /  5.1 km/h 8.0 mph /  12.9 km/h 91 % 0.0 in /  0 mm
11:36 -1.4 °F /  -18.6 °C -2.7 °F /  -19.3 °C 1021.6 in /  34591.4 hPa NNW 4.7 mph /  7.6 km/h 8.0 mph /  12.9 km/h 91 % 0.0 in /  0 mm
11:42 -1.4 °F /  -18.6 °C -2.7 °F /  -19.3 °C 1021.6 in /  34591.4 hPa North 4.7 mph /  7.6 km/h 6.4 mph /  10.3 km/h 91 % 0.0 in /  0 mm
11:48 -1.3 °F /  -18.5 °C -2.6 °F /  -19.2 °C 1021.6 in /  34591.4 hPa North 3.2 mph /  5.1 km/h 4.8 mph /  7.7 km/h 91 % 0.0 in /  0 mm
11:54 -1.2 °F /  -18.4 °C -2.5 °F /  -19.2 °C 1021.6 in /  34591.4 hPa NNE 3.2 mph /  5.1 km/h 4.8 mph /  7.7 km/h 91 % 0.0 in /  0 mm
12:00 -1.2 °F /  -18.4 °C -2.6 °F /  -19.2 °C 1021.6 in /  34591.4 hPa Calm   3.2 mph /  5.1 km/h 90 % 0.0 in /  0 mm
12:06 -1.1 °F /  -18.4 °C -2.5 °F /  -19.2 °C 1021.6 in /  34591.4 hPa NNW 1.4 mph /  2.3 km/h 3.2 mph /  5.1 km/h 90 % 0.0 in /  0 mm
12:12 -1.0 °F /  -18.3 °C -2.4 °F /  -19.1 °C 1021.6 in /  34591.4 hPa North 1.4 mph /  2.3 km/h 3.2 mph /  5.1 km/h 90 % 0.0 in /  0 mm
12:18 -0.9 °F /  -18.3 °C -2.5 °F /  -19.2 °C 1021.6 in /  34591.4 hPa Calm   3.2 mph /  5.1 km/h 89 % 0.0 in /  0 mm
12:24 -0.9 °F /  -18.3 °C -2.5 °F /  -19.2 °C 1021.6 in /  34591.4 hPa NNE 3.2 mph /  5.1 km/h 6.4 mph /  10.3 km/h 89 % 0.0 in /  0 mm
12:30 -0.8 °F /  -18.2 °C -2.2 °F /  -19 °C 1021.6 in /  34591.4 hPa NW 1.4 mph /  2.3 km/h 4.8 mph /  7.7 km/h 90 % 0.0 in /  0 mm
12:36 -0.8 °F /  -18.2 °C -2.4 °F /  -19.1 °C 1021.6 in /  34591.4 hPa NNW 1.4 mph /  2.3 km/h 4.8 mph /  7.7 km/h 89 % 0.0 in /  0 mm
12:42 -0.7 °F /  -18.2 °C -2.3 °F /  -19.1 °C 1021.6 in /  34591.4 hPa North 1.4 mph /  2.3 km/h 4.8 mph /  7.7 km/h 89 % 0.0 in /  0 mm
12:48 -0.8 °F /  -18.2 °C -2.5 °F /  -19.2 °C 1021.6 in /  34591.4 hPa NNW 1.4 mph /  2.3 km/h 6.4 mph /  10.3 km/h 88 % 0.0 in /  0 mm
12:54 -0.9 °F /  -18.3 °C -2.5 °F /  -19.2 °C 1021.6 in /  34591.4 hPa NNE 4.7 mph /  7.6 km/h 8.0 mph /  12.9 km/h 89 % 0.0 in /  0 mm
13:00 -0.9 °F /  -18.3 °C -2.6 °F /  -19.2 °C 1021.2 in /  34577.8 hPa NNW 3.2 mph /  5.1 km/h 9.7 mph /  15.6 km/h 88 % 0.0 in /  0 mm
13:06 -0.9 °F /  -18.3 °C -2.5 °F /  -19.2 °C 1021.2 in /  34577.8 hPa NNW 1.4 mph /  2.3 km/h 4.8 mph /  7.7 km/h 89 % 0.0 in /  0 mm
13:12 -0.8 °F /  -18.2 °C -2.4 °F /  -19.1 °C 1021.2 in /  34577.8 hPa Calm   6.4 mph /  10.3 km/h 89 % 0.0 in /  0 mm
13:18 -0.9 °F /  -18.3 °C -2.5 °F /  -19.2 °C 1021.2 in /  34577.8 hPa ENE 6.4 mph /  10.3 km/h 6.4 mph /  10.3 km/h 89 % 0.0 in /  0 mm
13:24 -0.9 °F /  -18.3 °C -2.5 °F /  -19.2 °C 1021.2 in /  34577.8 hPa NE 1.4 mph /  2.3 km/h 11.3 mph /  18.2 km/h 89 % 0.0 in /  0 mm
13:30 -1.1 °F /  -18.4 °C -2.8 °F /  -19.3 °C 1021.2 in /  34577.8 hPa NNE 3.2 mph /  5.1 km/h 12.9 mph /  20.8 km/h 88 % 0.0 in /  0 mm
13:36 -1.1 °F /  -18.4 °C -2.7 °F /  -19.3 °C 1021.2 in /  34577.8 hPa NNW 1.4 mph /  2.3 km/h 4.8 mph /  7.7 km/h 89 % 0.0 in /  0 mm
13:42 -0.9 °F /  -18.3 °C -2.3 °F /  -19.1 °C 1021.2 in /  34577.8 hPa NE 3.2 mph /  5.1 km/h 6.4 mph /  10.3 km/h 90 % 0.0 in /  0 mm
13:48 -0.9 °F /  -18.3 °C -2.5 °F /  -19.2 °C 1021.2 in /  34577.8 hPa North 1.4 mph /  2.3 km/h 4.8 mph /  7.7 km/h 89 % 0.0 in /  0 mm
13:54 -1.0 °F /  -18.3 °C -2.6 °F /  -19.2 °C 1021.2 in /  34577.8 hPa North 1.4 mph /  2.3 km/h 4.8 mph /  7.7 km/h 89 % 0.0 in /  0 mm
14:00 -0.8 °F /  -18.2 °C -2.4 °F /  -19.1 °C 1021.2 in /  34577.8 hPa NNW 4.7 mph /  7.6 km/h 4.8 mph /  7.7 km/h 89 % 0.0 in /  0 mm
14:06 -0.9 °F /  -18.3 °C -2.5 °F /  -19.2 °C 1021.2 in /  34577.8 hPa Calm   4.8 mph /  7.7 km/h 89 % 0.0 in /  0 mm
14:12 -0.7 °F /  -18.2 °C -2.3 °F /  -19.1 °C 1021.2 in /  34577.8 hPa Calm   1.6 mph /  2.6 km/h 89 % 0.0 in /  0 mm
14:18 -0.6 °F /  -18.1 °C -2.2 °F /  -19 °C 1021.2 in /  34577.8 hPa NNE 1.4 mph /  2.3 km/h 3.2 mph /  5.1 km/h 89 % 0.0 in /  0 mm
14:24 -0.6 °F /  -18.1 °C -2.3 °F /  -19.1 °C 1020.9 in /  34567.7 hPa NW 1.4 mph /  2.3 km/h 4.8 mph /  7.7 km/h 88 % 0.0 in /  0 mm
14:30 -0.4 °F /  -18 °C -2.0 °F /  -18.9 °C 1020.9 in /  34567.7 hPa North 1.4 mph /  2.3 km/h 3.2 mph /  5.1 km/h 89 % 0.0 in /  0 mm
14:36 -0.5 °F /  -18.1 °C -2.2 °F /  -19 °C 1021.2 in /  34577.8 hPa North 1.4 mph /  2.3 km/h 3.2 mph /  5.1 km/h 88 % 0.0 in /  0 mm
14:42 -0.4 °F /  -18 °C -2.0 °F /  -18.9 °C 1021.2 in /  34577.8 hPa Calm     89 % 0.0 in /  0 mm
14:48 -0.3 °F /  -17.9 °C -2.0 °F /  -18.9 °C 1020.9 in /  34567.7 hPa Calm   1.6 mph /  2.6 km/h 88 % 0.0 in /  0 mm
14:54 -0.2 °F /  -17.9 °C -1.9 °F /  -18.8 °C 1020.9 in /  34567.7 hPa Calm   1.6 mph /  2.6 km/h 88 % 0.0 in /  0 mm
15:00 -0.3 °F /  -17.9 °C -2.0 °F /  -18.9 °C 1020.9 in /  34567.7 hPa Calm   3.2 mph /  5.1 km/h 88 % 0.0 in /  0 mm
15:06 -0.3 °F /  -17.9 °C -2.0 °F /  -18.9 °C 1020.9 in /  34567.7 hPa WNW 1.4 mph /  2.3 km/h 1.6 mph /  2.6 km/h 88 % 0.0 in /  0 mm
15:12 -0.3 °F /  -17.9 °C -2.2 °F /  -19 °C 1020.9 in /  34567.7 hPa NNE 3.2 mph /  5.1 km/h 3.2 mph /  5.1 km/h 87 % 0.0 in /  0 mm
15:18 -0.3 °F /  -17.9 °C -2.0 °F /  -18.9 °C 1020.9 in /  34567.7 hPa Calm   1.6 mph /  2.6 km/h 88 % 0.0 in /  0 mm
15:24 -0.3 °F /  -17.9 °C -2.2 °F /  -19 °C 1020.9 in /  34567.7 hPa Calm   1.6 mph /  2.6 km/h 87 % 0.0 in /  0 mm
15:30 -0.3 °F /  -17.9 °C -2.0 °F /  -18.9 °C 1020.9 in /  34567.7 hPa Calm     88 % 0.0 in /  0 mm
15:37 -0.3 °F /  -17.9 °C -2.0 °F /  -18.9 °C 1021.2 in /  34577.8 hPa Calm   1.6 mph /  2.6 km/h 88 % 0.0 in /  0 mm
15:43 -0.3 °F /  -17.9 °C -2.0 °F /  -18.9 °C 1021.2 in /  34577.8 hPa Calm   1.6 mph /  2.6 km/h 88 % 0.0 in /  0 mm
15:49 -0.3 °F /  -17.9 °C -2.0 °F /  -18.9 °C 1021.2 in /  34577.8 hPa NNE 1.4 mph /  2.3 km/h 1.6 mph /  2.6 km/h 88 % 0.0 in /  0 mm
15:55 -0.4 °F /  -18 °C -2.1 °F /  -18.9 °C 1021.2 in /  34577.8 hPa Calm   1.6 mph /  2.6 km/h 88 % 0.0 in /  0 mm
16:01 -0.4 °F /  -18 °C -2.1 °F /  -18.9 °C 1021.2 in /  34577.8 hPa Calm   1.6 mph /  2.6 km/h 88 % 0.0 in /  0 mm
16:07 -0.4 °F /  -18 °C -2.1 °F /  -18.9 °C 1021.2 in /  34577.8 hPa Calm   1.6 mph /  2.6 km/h 88 % 0.0 in /  0 mm
16:13 -0.4 °F /  -18 °C -2.0 °F /  -18.9 °C 1021.2 in /  34577.8 hPa NNE 1.4 mph /  2.3 km/h 1.6 mph /  2.6 km/h 89 % 0.0 in /  0 mm
16:19 -0.4 °F /  -18 °C -2.0 °F /  -18.9 °C 1021.2 in /  34577.8 hPa Calm     89 % 0.0 in /  0 mm
16:25 -0.5 °F /  -18.1 °C -2.1 °F /  -18.9 °C 1021.2 in /  34577.8 hPa NNE 1.4 mph /  2.3 km/h 1.6 mph /  2.6 km/h 89 % 0.0 in /  0 mm
16:31 -0.6 °F /  -18.1 °C -2.3 °F /  -19.1 °C 1021.2 in /  34577.8 hPa Calm     88 % 0.0 in /  0 mm
16:37 -0.6 °F /  -18.1 °C -2.3 °F /  -19.1 °C 1021.2 in /  34577.8 hPa Calm   1.6 mph /  2.6 km/h 88 % 0.0 in /  0 mm
16:43 -0.6 °F /  -18.1 °C -2.2 °F /  -19 °C 1021.2 in /  34577.8 hPa Calm   1.6 mph /  2.6 km/h 89 % 0.0 in /  0 mm
16:49 -0.6 °F /  -18.1 °C -2.2 °F /  -19 °C 1021.2 in /  34577.8 hPa Calm   1.6 mph /  2.6 km/h 89 % 0.0 in /  0 mm
16:55 -0.6 °F /  -18.1 °C -2.2 °F /  -19 °C 1021.2 in /  34577.8 hPa Calm   1.6 mph /  2.6 km/h 89 % 0.0 in /  0 mm
17:01 -0.6 °F /  -18.1 °C -2.2 °F /  -19 °C 1020.9 in /  34567.7 hPa Calm   1.6 mph /  2.6 km/h 89 % 0.0 in /  0 mm
17:07 -0.7 °F /  -18.2 °C -2.3 °F /  -19.1 °C 1020.9 in /  34567.7 hPa Calm     89 % 0.0 in /  0 mm
17:13 -0.6 °F /  -18.1 °C -2.2 °F /  -19 °C 1021.2 in /  34577.8 hPa Calm     89 % 0.0 in /  0 mm
17:19 -0.6 °F /  -18.1 °C -2.2 °F /  -19 °C 1021.2 in /  34577.8 hPa Calm     89 % 0.0 in /  0 mm
17:25 -0.6 °F /  -18.1 °C -2.2 °F /  -19 °C 1021.2 in /  34577.8 hPa Calm     89 % 0.0 in /  0 mm
17:31 -0.7 °F /  -18.2 °C -2.3 °F /  -19.1 °C 1020.9 in /  34567.7 hPa Calm     89 % 0.0 in /  0 mm
17:38 -0.6 °F /  -18.1 °C -2.2 °F /  -19 °C 1020.9 in /  34567.7 hPa Calm     89 % 0.0 in /  0 mm
17:44 -0.7 °F /  -18.2 °C -2.3 °F /  -19.1 °C 1021.2 in /  34577.8 hPa Calm     89 % 0.0 in /  0 mm
17:50 -0.7 °F /  -18.2 °C -2.3 °F /  -19.1 °C 1021.2 in /  34577.8 hPa Calm     89 % 0.0 in /  0 mm
17:56 -0.7 °F /  -18.2 °C -2.3 °F /  -19.1 °C 1021.2 in /  34577.8 hPa Calm     89 % 0.0 in /  0 mm
18:02 -0.7 °F /  -18.2 °C -2.3 °F /  -19.1 °C 1021.2 in /  34577.8 hPa Calm     89 % 0.0 in /  0 mm
18:08 -0.8 °F /  -18.2 °C -2.4 °F /  -19.1 °C 1021.2 in /  34577.8 hPa Calm     89 % 0.0 in /  0 mm
18:14 -0.8 °F /  -18.2 °C -2.2 °F /  -19 °C 1021.2 in /  34577.8 hPa Calm     90 % 0.0 in /  0 mm
18:20 -0.8 °F /  -18.2 °C -2.2 °F /  -19 °C 1021.2 in /  34577.8 hPa Calm     90 % 0.0 in /  0 mm
18:26 -0.8 °F /  -18.2 °C -2.2 °F /  -19 °C 1021.2 in /  34577.8 hPa Calm     90 % 0.0 in /  0 mm
18:32 -0.8 °F /  -18.2 °C -2.2 °F /  -19 °C 1021.2 in /  34577.8 hPa Calm     90 % 0.0 in /  0 mm
18:38 -0.8 °F /  -18.2 °C -2.2 °F /  -19 °C 1021.2 in /  34577.8 hPa Calm     90 % 0.0 in /  0 mm
18:44 -0.8 °F /  -18.2 °C -2.1 °F /  -18.9 °C 1021.2 in /  34577.8 hPa Calm     91 % 0.0 in /  0 mm
18:50 -0.8 °F /  -18.2 °C -2.1 °F /  -18.9 °C 1021.2 in /  34577.8 hPa Calm     91 % 0.0 in /  0 mm
18:56 -0.8 °F /  -18.2 °C -2.1 °F /  -18.9 °C 1021.2 in /  34577.8 hPa NNE 1.4 mph /  2.3 km/h 1.6 mph /  2.6 km/h 91 % 0.0 in /  0 mm
19:02 -0.8 °F /  -18.2 °C -2.1 °F /  -18.9 °C 1021.2 in /  34577.8 hPa Calm   1.6 mph /  2.6 km/h 91 % 0.0 in /  0 mm
19:08 -0.8 °F /  -18.2 °C -2.1 °F /  -18.9 °C 1021.2 in /  34577.8 hPa Calm     91 % 0.0 in /  0 mm
19:14 -0.8 °F /  -18.2 °C -1.9 °F /  -18.8 °C 1021.2 in /  34577.8 hPa Calm   1.6 mph /  2.6 km/h 92 % 0.0 in /  0 mm
19:21 -0.8 °F /  -18.2 °C -1.9 °F /  -18.8 °C 1021.2 in /  34577.8 hPa Calm   1.6 mph /  2.6 km/h 92 % 0.0 in /  0 mm
19:27 -0.8 °F /  -18.2 °C -1.9 °F /  -18.8 °C 1021.2 in /  34577.8 hPa NNE 1.4 mph /  2.3 km/h 1.6 mph /  2.6 km/h 92 % 0.0 in /  0 mm
19:33 -0.8 °F /  -18.2 °C -1.9 °F /  -18.8 °C 1021.2 in /  34577.8 hPa Calm   1.6 mph /  2.6 km/h 92 % 0.0 in /  0 mm
19:39 -0.8 °F /  -18.2 °C -1.9 °F /  -18.8 °C 1021.2 in /  34577.8 hPa NNE 1.4 mph /  2.3 km/h 1.6 mph /  2.6 km/h 92 % 0.0 in /  0 mm
19:45 -0.8 °F /  -18.2 °C -1.9 °F /  -18.8 °C 1021.2 in /  34577.8 hPa Calm   1.6 mph /  2.6 km/h 92 % 0.0 in /  0 mm
19:51 -0.8 °F /  -18.2 °C -1.9 °F /  -18.8 °C 1021.2 in /  34577.8 hPa Calm   3.2 mph /  5.1 km/h 92 % 0.0 in /  0 mm
19:57 -0.8 °F /  -18.2 °C -1.9 °F /  -18.8 °C 1020.9 in /  34567.7 hPa NNE 4.7 mph /  7.6 km/h 4.8 mph /  7.7 km/h 92 % 0.0 in /  0 mm
20:03 -0.8 °F /  -18.2 °C -1.9 °F /  -18.8 °C 1021.2 in /  34577.8 hPa NNE 1.4 mph /  2.3 km/h 4.8 mph /  7.7 km/h 92 % 0.0 in /  0 mm
20:09 -0.8 °F /  -18.2 °C -1.9 °F /  -18.8 °C 1021.2 in /  34577.8 hPa Calm   3.2 mph /  5.1 km/h 92 % 0.0 in /  0 mm
20:15 -0.8 °F /  -18.2 °C -1.8 °F /  -18.8 °C 1021.2 in /  34577.8 hPa NNE 1.4 mph /  2.3 km/h 1.6 mph /  2.6 km/h 93 % 0.0 in /  0 mm
20:21 -0.8 °F /  -18.2 °C -1.8 °F /  -18.8 °C 1021.2 in /  34577.8 hPa Calm   3.2 mph /  5.1 km/h 93 % 0.0 in /  0 mm
20:27 -0.8 °F /  -18.2 °C -1.9 °F /  -18.8 °C 1021.2 in /  34577.8 hPa Calm   1.6 mph /  2.6 km/h 92 % 0.0 in /  0 mm
20:33 -0.8 °F /  -18.2 °C -2.1 °F /  -18.9 °C 1021.2 in /  34577.8 hPa Calm   3.2 mph /  5.1 km/h 91 % 0.0 in /  0 mm
20:39 -0.7 °F /  -18.2 °C -1.8 °F /  -18.8 °C 1021.2 in /  34577.8 hPa NNE 3.2 mph /  5.1 km/h 4.8 mph /  7.7 km/h 92 % 0.0 in /  0 mm
20:45 -0.8 °F /  -18.2 °C -2.2 °F /  -19 °C 1020.9 in /  34567.7 hPa Calm   1.6 mph /  2.6 km/h 90 % 0.0 in /  0 mm
20:51 -0.7 °F /  -18.2 °C -2.0 °F /  -18.9 °C 1020.9 in /  34567.7 hPa NNE 1.4 mph /  2.3 km/h 1.6 mph /  2.6 km/h 91 % 0.0 in /  0 mm
20:57 -0.7 °F /  -18.2 °C -2.0 °F /  -18.9 °C 1020.9 in /  34567.7 hPa Calm   1.6 mph /  2.6 km/h 91 % 0.0 in /  0 mm
21:03 -0.8 °F /  -18.2 °C -1.9 °F /  -18.8 °C 1021.2 in /  34577.8 hPa NNE 1.4 mph /  2.3 km/h 1.6 mph /  2.6 km/h 92 % 0.0 in /  0 mm
21:09 -0.8 °F /  -18.2 °C -2.1 °F /  -18.9 °C 1021.2 in /  34577.8 hPa NNE 1.4 mph /  2.3 km/h 3.2 mph /  5.1 km/h 91 % 0.0 in /  0 mm
21:15 -0.8 °F /  -18.2 °C -2.1 °F /  -18.9 °C 1021.2 in /  34577.8 hPa Calm   3.2 mph /  5.1 km/h 91 % 0.0 in /  0 mm
21:21 -0.8 °F /  -18.2 °C -2.1 °F /  -18.9 °C 1021.2 in /  34577.8 hPa NNE 1.4 mph /  2.3 km/h 1.6 mph /  2.6 km/h 91 % 0.0 in /  0 mm
21:27 -0.8 °F /  -18.2 °C -2.1 °F /  -18.9 °C 1021.2 in /  34577.8 hPa Calm   1.6 mph /  2.6 km/h 91 % 0.0 in /  0 mm
21:33 -0.8 °F /  -18.2 °C -2.1 °F /  -18.9 °C 1021.2 in /  34577.8 hPa NNE 1.4 mph /  2.3 km/h 3.2 mph /  5.1 km/h 91 % 0.0 in /  0 mm
21:39 -0.8 °F /  -18.2 °C -2.2 °F /  -19 °C 1021.2 in /  34577.8 hPa NNE 1.4 mph /  2.3 km/h 9.7 mph /  15.6 km/h 90 % 0.0 in /  0 mm
21:45 -0.8 °F /  -18.2 °C -2.4 °F /  -19.1 °C 1021.2 in /  34577.8 hPa NNE 4.7 mph /  7.6 km/h 8.0 mph /  12.9 km/h 89 % 0.0 in /  0 mm
21:51 -0.7 °F /  -18.2 °C -2.4 °F /  -19.1 °C 1021.2 in /  34577.8 hPa NNE 1.4 mph /  2.3 km/h 4.8 mph /  7.7 km/h 88 % 0.0 in /  0 mm
21:57 -0.7 °F /  -18.2 °C -2.4 °F /  -19.1 °C 1020.9 in /  34567.7 hPa NNE 4.7 mph /  7.6 km/h 11.3 mph /  18.2 km/h 88 % 0.0 in /  0 mm
22:03 -0.7 °F /  -18.2 °C -2.4 °F /  -19.1 °C 1020.9 in /  34567.7 hPa NNE 4.7 mph /  7.6 km/h 6.4 mph /  10.3 km/h 88 % 0.0 in /  0 mm
22:09 -0.7 °F /  -18.2 °C -2.3 °F /  -19.1 °C 1020.9 in /  34567.7 hPa NNE 3.2 mph /  5.1 km/h 8.0 mph /  12.9 km/h 89 % 0.0 in /  0 mm
22:15 -0.7 °F /  -18.2 °C -2.1 °F /  -18.9 °C 1020.5 in /  34554.1 hPa NNE 4.7 mph /  7.6 km/h 6.4 mph /  10.3 km/h 90 % 0.0 in /  0 mm
22:22 -0.7 °F /  -18.2 °C -2.3 °F /  -19.1 °C 1020.5 in /  34554.1 hPa Calm   4.8 mph /  7.7 km/h 89 % 0.0 in /  0 mm
22:27 -0.7 °F /  -18.2 °C -2.1 °F /  -18.9 °C 1020.5 in /  34554.1 hPa NNE 1.4 mph /  2.3 km/h 3.2 mph /  5.1 km/h 90 % 0.0 in /  0 mm
22:33 -0.7 °F /  -18.2 °C -2.1 °F /  -18.9 °C 1020.5 in /  34554.1 hPa NNE 3.2 mph /  5.1 km/h 4.8 mph /  7.7 km/h 90 % 0.0 in /  0 mm
22:39 -0.8 °F /  -18.2 °C -2.4 °F /  -19.1 °C 1020.5 in /  34554.1 hPa Calm   6.4 mph /  10.3 km/h 89 % 0.0 in /  0 mm
22:45 -0.8 °F /  -18.2 °C -2.2 °F /  -19 °C 1020.5 in /  34554.1 hPa NNE 1.4 mph /  2.3 km/h 6.4 mph /  10.3 km/h 90 % 0.0 in /  0 mm
22:51 -0.8 °F /  -18.2 °C -2.1 °F /  -18.9 °C 1020.5 in /  34554.1 hPa NNE 3.2 mph /  5.1 km/h 4.8 mph /  7.7 km/h 91 % 0.0 in /  0 mm
22:57 -0.8 °F /  -18.2 °C -2.2 °F /  -19 °C 1020.5 in /  34554.1 hPa NNE 3.2 mph /  5.1 km/h 8.0 mph /  12.9 km/h 90 % 0.0 in /  0 mm
23:03 -0.8 °F /  -18.2 °C -2.2 °F /  -19 °C 1020.2 in /  34544 hPa NNE 1.4 mph /  2.3 km/h 9.7 mph /  15.6 km/h 90 % 0.0 in /  0 mm
23:09 -0.9 °F /  -18.3 °C -2.6 °F /  -19.2 °C 1020.2 in /  34544 hPa NNE 1.4 mph /  2.3 km/h 9.7 mph /  15.6 km/h 88 % 0.0 in /  0 mm
23:15 -0.9 °F /  -18.3 °C -2.6 °F /  -19.2 °C 1019.9 in /  34533.8 hPa NNE 4.7 mph /  7.6 km/h 8.0 mph /  12.9 km/h 88 % 0.0 in /  0 mm
23:21 -0.9 °F /  -18.3 °C -2.6 °F /  -19.2 °C 1020.2 in /  34544 hPa Calm   6.4 mph /  10.3 km/h 88 % 0.0 in /  0 mm
23:27 -0.9 °F /  -18.3 °C -2.6 °F /  -19.2 °C 1020.2 in /  34544 hPa NNE 4.7 mph /  7.6 km/h 9.7 mph /  15.6 km/h 88 % 0.0 in /  0 mm
23:33 -0.8 °F /  -18.2 °C -2.5 °F /  -19.2 °C 1019.9 in /  34533.8 hPa NNE 1.4 mph /  2.3 km/h 8.0 mph /  12.9 km/h 88 % 0.0 in /  0 mm
23:39 -0.9 °F /  -18.3 °C -2.8 °F /  -19.3 °C 1019.9 in /  34533.8 hPa NNE 4.7 mph /  7.6 km/h 6.4 mph /  10.3 km/h 87 % 0.0 in /  0 mm
23:45 -0.8 °F /  -18.2 °C -2.7 °F /  -19.3 °C 1019.9 in /  34533.8 hPa NNE 4.7 mph /  7.6 km/h 9.7 mph /  15.6 km/h 87 % 0.0 in /  0 mm
23:51 -0.8 °F /  -18.2 °C -2.5 °F /  -19.2 °C 1019.9 in /  34533.8 hPa NNE 7.9 mph /  12.7 km/h 9.7 mph /  15.6 km/h 88 % 0.0 in /  0 mm
23:57 -0.8 °F /  -18.2 °C -2.5 °F /  -19.2 °C 1019.9 in /  34533.8 hPa Calm   9.7 mph /  15.6 km/h 88 % 0.0 in /  0 mm
Meteo18
Compliments of Weather Underground - 4 mb

Script developed by  Jim McMurry - jmcmurry@mwt.net Adapted for the template by  Wim van der Kuil - Leuven-Template.eu

You find our weather info also at:

European Weather Network

Weather Underground

Equipment we use:

Weather-station
Davis Vue

Weather-program
Meteobridge

Weather-server
Raspberry PI 2 B+

Provider
1 and 1

Davis Vue

Meteobridge

Raspberry PI 2 B+

1 and 1